Time;durP1;ratioP1;P1;durP2;ratioP2;P2;SDS_P1;SDS_P2;PMS_P1;PMS_P2;Temp;Humidity;BMP_temperature;BMP_pressure;BME280_temperature;BME280_humidity;BME280_pressure;Samples;Min_cycle;Max_cycle;Signal;HPM_P1;HPM_P2
2022/12/31 00:01:48;;;;;;;3.60;0.77;;;11.40;45.50;;;;;;5058669;28;20485;-62
2022/12/31 00:04:15;;;;;;;4.00;1.10;;;11.40;45.30;;;;;;5058096;28;20910;-62
2022/12/31 00:06:42;;;;;;;3.50;0.80;;;11.40;45.30;;;;;;5054597;28;20461;-63
2022/12/31 00:09:10;;;;;;;3.77;0.90;;;11.40;45.90;;;;;;5056709;28;20535;-62
2022/12/31 00:11:37;;;;;;;3.70;1.03;;;11.40;45.40;;;;;;5054995;28;20494;-62
2022/12/31 00:14:04;;;;;;;3.87;0.97;;;11.50;46.10;;;;;;5059606;28;20467;-62
2022/12/31 00:16:35;;;;;;;4.60;0.90;;;11.50;45.40;;;;;;5057702;28;20453;-62
2022/12/31 00:19:07;;;;;;;4.10;1.00;;;11.50;45.20;;;;;;5058152;28;21298;-62
2022/12/31 00:21:34;;;;;;;3.60;1.10;;;11.60;45.00;;;;;;5060858;28;20512;-62
2022/12/31 00:24:02;;;;;;;3.73;1.00;;;11.60;44.80;;;;;;5056896;28;20871;-62
2022/12/31 00:26:31;;;;;;;4.30;0.90;;;11.60;44.80;;;;;;5057976;28;20484;-62
2022/12/31 00:28:59;;;;;;;3.47;0.77;;;11.60;44.60;;;;;;5053638;28;20468;-64
2022/12/31 00:31:28;;;;;;;5.33;2.30;;;11.60;44.50;;;;;;5058307;28;20888;-63
2022/12/31 00:33:56;;;;;;;3.50;0.80;;;11.60;44.40;;;;;;5059302;28;20469;-63
2022/12/31 00:36:27;;;;;;;4.00;0.73;;;11.60;44.40;;;;;;5063342;28;20480;-63
2022/12/31 00:38:55;;;;;;;5.60;1.53;;;11.60;44.40;;;;;;5054141;28;20545;-62
2022/12/31 00:41:23;;;;;;;3.60;1.00;;;11.60;44.30;;;;;;5054459;28;20478;-62
2022/12/31 00:43:50;;;;;;;3.70;0.80;;;11.70;44.40;;;;;;5060880;28;20996;-62
2022/12/31 00:46:17;;;;;;;3.63;0.90;;;11.70;44.20;;;;;;5062548;28;20472;-63
2022/12/31 00:48:44;;;;;;;4.13;0.70;;;11.70;43.90;;;;;;5060456;28;20860;-64
2022/12/31 00:51:13;;;;;;;3.40;0.70;;;11.70;44.00;;;;;;5060546;28;20468;-62
2022/12/31 00:53:41;;;;;;;4.10;0.80;;;11.80;43.70;;;;;;5063354;28;20473;-63
2022/12/31 00:56:11;;;;;;;4.63;1.00;;;11.80;43.50;;;;;;5063502;28;20467;-62
2022/12/31 00:58:38;;;;;;;3.60;0.80;;;11.80;43.60;;;;;;5060448;28;20525;-62
2022/12/31 01:01:09;;;;;;;6.63;0.90;;;11.70;43.30;;;;;;5059420;28;20519;-62
2022/12/31 01:03:36;;;;;;;3.80;1.10;;;11.80;43.30;;;;;;5062073;28;20468;-62
2022/12/31 01:06:03;;;;;;;4.53;1.00;;;11.80;43.20;;;;;;5057975;28;20987;-62
2022/12/31 01:08:29;;;;;;;3.97;1.07;;;11.80;42.70;;;;;;5060156;28;21038;-63
2022/12/31 01:13:43;;;;;;;3.50;1.03;;;11.80;42.50;;;;;;5059352;28;20464;-63
2022/12/31 01:16:10;;;;;;;4.10;0.80;;;11.80;42.30;;;;;;5057517;28;20465;-62
2022/12/31 01:18:37;;;;;;;3.77;1.00;;;11.80;42.10;;;;;;5062342;28;20480;-64
2022/12/31 01:21:06;;;;;;;3.70;0.90;;;11.80;42.20;;;;;;5063678;28;21035;-63
2022/12/31 01:23:33;;;;;;;5.40;1.60;;;11.80;41.90;;;;;;5057576;28;20747;-63
2022/12/31 01:26:02;;;;;;;3.90;1.17;;;11.80;42.00;;;;;;5063729;28;20461;-61
2022/12/31 01:28:29;;;;;;;4.00;1.10;;;11.80;41.70;;;;;;5064882;28;20488;-62
2022/12/31 01:30:56;;;;;;;3.80;0.87;;;11.80;41.50;;;;;;5061493;28;21018;-63
2022/12/31 01:33:23;;;;;;;3.80;1.13;;;11.80;41.50;;;;;;5061181;28;20457;-63
2022/12/31 01:35:50;;;;;;;4.73;1.10;;;11.80;41.40;;;;;;5062135;28;20461;-62
2022/12/31 01:38:17;;;;;;;3.67;0.97;;;11.80;41.40;;;;;;5064311;28;20492;-63
2022/12/31 01:40:43;;;;;;;4.47;1.10;;;11.80;41.30;;;;;;5063978;28;20461;-62
2022/12/31 01:43:17;;;;;;;5.40;1.20;;;11.80;41.30;;;;;;5061440;28;20461;-62
2022/12/31 01:45:46;;;;;;;4.00;1.27;;;11.80;41.40;;;;;;5066586;28;20465;-62
2022/12/31 01:48:17;;;;;;;4.00;1.20;;;11.80;41.40;;;;;;5067217;28;20477;-61
2022/12/31 01:50:46;;;;;;;4.13;1.17;;;11.80;41.20;;;;;;5063962;28;20827;-64
2022/12/31 01:53:15;;;;;;;4.33;1.40;;;11.80;41.30;;;;;;5059098;28;21236;-62
2022/12/31 01:55:47;;;;;;;4.37;1.63;;;11.80;41.30;;;;;;5061171;28;20824;-63
2022/12/31 01:58:20;;;;;;;3.80;0.90;;;11.80;41.20;;;;;;5057518;28;20477;-62
2022/12/31 02:00:47;;;;;;;4.43;1.30;;;11.70;41.50;;;;;;5058713;28;20472;-63
2022/12/31 02:03:14;;;;;;;4.23;1.80;;;11.70;41.50;;;;;;5058606;28;20845;-63
2022/12/31 02:05:47;;;;;;;4.43;1.53;;;11.70;41.50;;;;;;5059387;28;20464;-62
2022/12/31 02:08:14;;;;;;;6.50;1.60;;;11.70;41.60;;;;;;5063166;22;20500;-68
2022/12/31 02:10:41;;;;;;;5.90;1.40;;;11.70;41.60;;;;;;5041428;28;20466;-67
2022/12/31 02:13:08;;;;;;;4.20;1.27;;;11.70;41.60;;;;;;5043761;28;20453;-67
2022/12/31 02:15:43;;;;;;;4.13;1.10;;;11.70;41.50;;;;;;5041511;28;20472;-68
2022/12/31 02:18:19;;;;;;;4.37;1.10;;;11.60;41.70;;;;;;5034785;28;20482;-67
2022/12/31 02:21:18;;;;;;;3.93;0.93;;;11.60;41.80;;;;;;5044673;28;20494;-66
2022/12/31 02:24:18;;;;;;;4.97;1.23;;;11.60;41.80;;;;;;5036100;28;20849;-66
2022/12/31 02:26:59;;;;;;;4.23;1.23;;;11.60;42.00;;;;;;5031250;28;20471;-67
2022/12/31 02:30:01;;;;;;;4.03;1.20;;;11.50;42.90;;;;;;5035280;28;20709;-67
2022/12/31 02:32:39;;;;;;;4.67;1.07;;;11.50;42.30;;;;;;5041241;28;20462;-66
2022/12/31 02:35:10;;;;;;;4.10;1.23;;;11.40;42.30;;;;;;5044901;28;20544;-67
2022/12/31 02:37:40;;;;;;;4.07;0.97;;;11.40;42.60;;;;;;5043989;28;20890;-67
2022/12/31 02:40:11;;;;;;;4.50;1.03;;;11.40;42.60;;;;;;5035166;28;20459;-66
2022/12/31 02:42:38;;;;;;;4.73;0.93;;;11.40;42.50;;;;;;5034101;28;20998;-67
2022/12/31 02:45:10;;;;;;;3.90;1.20;;;11.40;42.70;;;;;;5036430;28;20466;-67
2022/12/31 02:47:49;;;;;;;4.17;1.03;;;11.40;42.60;;;;;;5042354;28;20771;-66
2022/12/31 02:50:28;;;;;;;6.03;1.33;;;11.30;42.50;;;;;;5043526;28;20461;-66
2022/12/31 02:53:09;;;;;;;3.87;1.67;;;11.30;42.80;;;;;;5038665;28;20465;-66
2022/12/31 02:55:43;;;;;;;4.43;1.20;;;11.30;42.80;;;;;;5042886;28;20850;-66
2022/12/31 02:58:17;;;;;;;4.03;0.90;;;11.30;42.80;;;;;;5046342;28;20848;-66
2022/12/31 03:03:37;;;;;;;4.00;0.90;;;11.30;43.00;;;;;;5036941;28;20985;-66
2022/12/31 03:06:06;;;;;;;3.90;1.00;;;11.30;43.20;;;;;;5040378;28;20477;-66
2022/12/31 03:09:11;;;;;;;4.83;1.10;;;11.40;43.00;;;;;;5037012;28;20553;-66
2022/12/31 03:14:01;;;;;;;3.50;0.90;;;11.50;42.80;;;;;;5038426;28;20442;-67
2022/12/31 03:16:29;;;;;;;3.90;1.00;;;11.50;42.80;;;;;;5043611;28;20469;-67
2022/12/31 03:27:08;;;;;;;3.83;0.90;;;11.70;42.20;;;;;;5044329;28;20526;-67
2022/12/31 03:29:35;;;;;;;4.00;1.10;;;11.70;42.20;;;;;;5041510;28;20473;-66
2022/12/31 03:32:03;;;;;;;5.07;0.83;;;11.70;42.00;;;;;;5043438;28;20470;-66
2022/12/31 03:34:30;;;;;;;3.70;0.80;;;11.80;42.00;;;;;;5032920;28;20469;-66
2022/12/31 03:36:56;;;;;;;3.70;0.80;;;11.80;41.80;;;;;;5042827;28;20463;-66
2022/12/31 03:39:23;;;;;;;4.87;0.90;;;11.90;41.90;;;;;;5044625;28;20484;-66
2022/12/31 03:41:50;;;;;;;4.00;1.03;;;11.90;42.60;;;;;;5044625;28;20474;-66
2022/12/31 03:44:17;;;;;;;4.70;0.73;;;11.90;41.80;;;;;;5036800;28;20458;-66
2022/12/31 03:46:44;;;;;;;5.33;1.20;;;12.00;41.40;;;;;;5040575;28;20453;-66
2022/12/31 03:49:12;;;;;;;4.23;0.67;;;12.00;41.40;;;;;;5036717;28;20477;-67
2022/12/31 03:51:38;;;;;;;4.00;0.80;;;12.00;41.30;;;;;;5040068;28;20454;-67
2022/12/31 03:54:05;;;;;;;4.27;0.70;;;12.00;41.20;;;;;;5036707;28;20473;-67
2022/12/31 03:56:32;;;;;;;3.80;1.00;;;12.00;41.20;;;;;;5038985;28;20461;-67
2022/12/31 03:58:59;;;;;;;3.77;0.80;;;12.00;41.00;;;;;;5038836;28;20490;-67
2022/12/31 04:01:26;;;;;;;3.60;0.80;;;12.00;41.10;;;;;;5039191;28;20518;-66
2022/12/31 04:03:52;;;;;;;4.23;0.93;;;12.00;41.00;;;;;;5042396;28;20458;-67
2022/12/31 04:06:21;;;;;;;3.60;0.73;;;12.00;40.90;;;;;;5035779;28;20470;-67
2022/12/31 04:08:47;;;;;;;4.90;1.20;;;12.00;41.00;;;;;;5041300;28;20490;-66
2022/12/31 04:11:14;;;;;;;3.90;0.90;;;12.00;41.10;;;;;;5041945;28;20466;-67
2022/12/31 04:13:41;;;;;;;4.30;0.70;;;12.00;41.00;;;;;;5035788;28;20458;-66
2022/12/31 04:16:07;;;;;;;4.40;0.73;;;11.90;41.20;;;;;;5042284;28;20454;-66
2022/12/31 04:18:34;;;;;;;3.80;0.90;;;12.00;41.30;;;;;;5041918;28;21019;-66
2022/12/31 04:21:02;;;;;;;3.40;0.60;;;12.00;41.20;;;;;;5045104;28;20454;-67
2022/12/31 04:23:30;;;;;;;3.30;0.50;;;12.00;41.20;;;;;;5037373;28;20462;-67
2022/12/31 04:25:57;;;;;;;5.53;0.70;;;12.00;41.40;;;;;;5036702;28;21185;-66
2022/12/31 04:28:24;;;;;;;3.50;0.70;;;12.00;41.50;;;;;;5035922;28;20488;-67
2022/12/31 04:30:50;;;;;;;3.63;0.70;;;12.10;41.50;;;;;;5037027;28;20571;-66
2022/12/31 04:33:17;;;;;;;4.00;0.80;;;12.10;41.50;;;;;;5039646;28;20462;-66
2022/12/31 04:35:44;;;;;;;3.50;0.70;;;12.20;41.50;;;;;;5035357;28;20462;-67
2022/12/31 04:38:11;;;;;;;4.43;0.80;;;12.20;41.50;;;;;;5031312;28;20479;-66
2022/12/31 04:41:15;;;;;;;4.80;0.70;;;12.20;41.30;;;;;;5042543;28;20454;-66
2022/12/31 04:43:26;;;;;;;5.73;0.70;;;12.20;41.40;;;;;;5037938;28;20937;-67
2022/12/31 04:45:52;;;;;;;8.00;0.90;;;12.30;41.50;;;;;;5042707;28;20469;-65
2022/12/31 04:48:19;;;;;;;4.37;0.93;;;12.30;41.60;;;;;;5043777;28;20478;-66
2022/12/31 04:50:47;;;;;;;3.30;0.60;;;12.30;41.70;;;;;;5038075;28;20458;-66
2022/12/31 04:53:13;;;;;;;3.40;0.60;;;12.30;41.60;;;;;;5032053;28;20470;-66
2022/12/31 04:55:42;;;;;;;4.27;0.73;;;12.40;42.30;;;;;;5042587;28;20826;-66
2022/12/31 04:58:09;;;;;;;3.50;0.60;;;12.30;41.70;;;;;;5036497;28;20493;-67
2022/12/31 05:00:35;;;;;;;4.30;1.00;;;12.30;41.70;;;;;;5039904;28;21385;-66
2022/12/31 05:03:02;;;;;;;5.47;1.50;;;12.30;41.80;;;;;;5039770;28;20493;-66
2022/12/31 05:05:29;;;;;;;4.23;0.90;;;12.30;41.80;;;;;;5038602;28;20984;-66
2022/12/31 05:07:56;;;;;;;5.90;0.70;;;12.30;41.80;;;;;;5039235;28;20864;-66
2022/12/31 05:10:23;;;;;;;3.40;0.53;;;12.30;41.90;;;;;;5042300;28;20833;-65
2022/12/31 05:12:51;;;;;;;3.70;0.70;;;12.30;42.20;;;;;;5041761;28;20458;-66
2022/12/31 05:15:18;;;;;;;3.87;0.77;;;12.30;42.20;;;;;;5047193;28;20469;-67
2022/12/31 05:17:44;;;;;;;4.57;0.93;;;12.30;42.20;;;;;;5038887;28;20482;-66
2022/12/31 05:20:11;;;;;;;4.00;0.60;;;12.30;42.20;;;;;;5043749;28;20489;-66
2022/12/31 05:22:38;;;;;;;3.60;0.80;;;12.30;42.10;;;;;;5043202;28;20485;-65
2022/12/31 05:25:05;;;;;;;3.57;0.80;;;12.30;42.10;;;;;;5044729;28;20450;-66
2022/12/31 05:27:33;;;;;;;4.47;0.90;;;12.30;42.10;;;;;;5043641;28;20478;-66
2022/12/31 05:30:01;;;;;;;4.23;1.00;;;12.30;42.00;;;;;;5042432;28;20466;-66
2022/12/31 05:32:28;;;;;;;5.10;1.00;;;12.30;42.00;;;;;;5042579;28;20466;-66
2022/12/31 05:34:54;;;;;;;4.20;0.90;;;12.30;41.90;;;;;;5042407;28;20466;-66
2022/12/31 05:37:21;;;;;;;3.80;0.70;;;12.40;41.70;;;;;;5044353;28;20465;-66
2022/12/31 05:39:48;;;;;;;3.80;0.70;;;12.40;41.30;;;;;;5041224;28;20470;-66
2022/12/31 05:42:14;;;;;;;4.10;0.80;;;12.40;41.30;;;;;;5033976;28;20490;-66
2022/12/31 05:44:41;;;;;;;5.30;0.70;;;12.30;41.30;;;;;;5043556;28;20458;-66
2022/12/31 05:47:09;;;;;;;3.70;1.07;;;12.30;41.10;;;;;;5044009;28;20462;-66
2022/12/31 05:49:36;;;;;;;5.20;0.97;;;12.30;41.10;;;;;;5047357;28;20466;-66
2022/12/31 05:52:03;;;;;;;3.77;1.03;;;12.30;41.10;;;;;;5041321;28;20454;-66
2022/12/31 05:54:29;;;;;;;3.57;0.60;;;12.30;40.80;;;;;;5042100;28;20469;-67
2022/12/31 05:56:56;;;;;;;4.73;0.90;;;12.20;40.80;;;;;;5043897;28;20959;-66
2022/12/31 05:59:23;;;;;;;4.10;0.90;;;12.30;40.80;;;;;;5044825;28;20557;-66
2022/12/31 06:01:50;;;;;;;3.70;0.70;;;12.20;40.70;;;;;;5040648;28;20481;-66
2022/12/31 06:04:18;;;;;;;5.80;0.90;;;12.30;40.50;;;;;;5046349;28;20462;-66
2022/12/31 06:06:45;;;;;;;3.53;0.80;;;12.30;40.40;;;;;;5039699;28;20470;-66
2022/12/31 06:09:12;;;;;;;3.80;0.70;;;12.30;40.30;;;;;;5039173;28;20489;-66
2022/12/31 06:11:38;;;;;;;4.13;0.90;;;12.30;40.20;;;;;;5042742;28;20466;-66
2022/12/31 06:14:05;;;;;;;3.80;0.80;;;12.30;40.20;;;;;;5034629;28;20459;-66
2022/12/31 06:16:32;;;;;;;3.70;0.80;;;12.30;40.00;;;;;;5040141;28;20476;-66
2022/12/31 06:18:59;;;;;;;3.70;0.80;;;12.30;40.00;;;;;;5034587;28;20753;-65
2022/12/31 06:21:27;;;;;;;3.73;0.83;;;12.20;40.00;;;;;;5042926;28;20458;-66
2022/12/31 06:23:54;;;;;;;3.40;0.60;;;12.30;40.00;;;;;;5031604;28;20486;-66
2022/12/31 06:26:20;;;;;;;3.40;0.77;;;12.20;39.90;;;;;;5036968;28;20466;-67
2022/12/31 06:28:47;;;;;;;5.13;0.80;;;12.30;39.80;;;;;;5039785;28;20483;-67
2022/12/31 06:31:15;;;;;;;3.50;0.73;;;12.30;39.80;;;;;;5040282;28;20999;-67
2022/12/31 06:33:42;;;;;;;3.40;0.80;;;12.30;39.80;;;;;;5041985;28;20843;-67
2022/12/31 06:36:13;;;;;;;3.43;0.73;;;12.30;39.50;;;;;;5039332;28;20462;-68
2022/12/31 06:38:43;;;;;;;3.70;1.00;;;12.30;39.40;;;;;;5039281;28;20826;-68
2022/12/31 06:41:12;;;;;;;4.67;0.80;;;12.30;39.50;;;;;;5040936;28;20458;-67
2022/12/31 06:43:40;;;;;;;3.80;0.80;;;12.30;39.30;;;;;;5038212;28;20477;-68
2022/12/31 06:46:08;;;;;;;4.87;1.07;;;12.30;39.10;;;;;;5039553;28;20458;-68
2022/12/31 06:48:35;;;;;;;3.40;0.70;;;12.30;39.30;;;;;;5034646;28;20478;-68
2022/12/31 06:51:05;;;;;;;3.57;0.70;;;12.30;39.30;;;;;;5037893;28;20463;-68
2022/12/31 06:53:32;;;;;;;4.20;1.70;;;12.30;39.40;;;;;;5031616;28;21531;-68
2022/12/31 06:56:06;;;;;;;4.33;0.80;;;12.30;39.50;;;;;;5042669;28;20489;-68
2022/12/31 06:58:33;;;;;;;3.70;0.70;;;12.30;39.40;;;;;;5041951;28;20489;-68
2022/12/31 07:01:11;;;;;;;3.97;0.70;;;12.30;39.30;;;;;;5041529;28;20470;-68
2022/12/31 07:03:43;;;;;;;5.47;1.30;;;12.40;39.30;;;;;;5030096;28;20485;-68
2022/12/31 07:06:16;;;;;;;3.50;0.80;;;12.30;39.40;;;;;;5041437;28;20454;-68
2022/12/31 07:08:52;;;;;;;5.23;1.60;;;12.30;39.30;;;;;;5038806;28;20961;-68
2022/12/31 07:11:23;;;;;;;3.80;0.90;;;12.30;39.40;;;;;;5042133;28;20457;-68
2022/12/31 07:13:59;;;;;;;3.97;0.73;;;12.30;39.30;;;;;;5034007;28;20450;-67
2022/12/31 07:16:35;;;;;;;3.80;0.80;;;12.30;39.20;;;;;;5040132;28;20547;-67
2022/12/31 07:19:12;;;;;;;4.03;0.90;;;12.30;39.20;;;;;;5043531;28;20482;-68
2022/12/31 07:21:40;;;;;;;7.80;1.47;;;12.30;39.20;;;;;;5041487;28;20484;-68
2022/12/31 07:24:09;;;;;;;9.63;1.30;;;12.30;39.20;;;;;;5037717;28;21112;-68
2022/12/31 07:26:52;;;;;;;3.70;0.93;;;12.20;39.10;;;;;;5038026;28;20466;-68
2022/12/31 07:29:27;;;;;;;3.77;0.90;;;12.20;39.30;;;;;;5033561;28;20490;-68
2022/12/31 07:32:05;;;;;;;7.03;0.83;;;12.20;39.30;;;;;;5035094;28;20476;-68
2022/12/31 07:34:41;;;;;;;3.70;1.00;;;12.20;39.40;;;;;;5041736;28;20462;-68
2022/12/31 07:37:13;;;;;;;4.33;1.17;;;12.20;39.40;;;;;;5039809;28;20472;-68
2022/12/31 07:39:45;;;;;;;3.50;0.93;;;12.20;39.30;;;;;;5043194;28;20458;-68
2022/12/31 07:42:21;;;;;;;4.53;1.20;;;12.30;39.40;;;;;;5035418;28;20466;-67
2022/12/31 07:45:00;;;;;;;4.83;0.87;;;12.30;39.20;;;;;;5044825;28;20461;-68
2022/12/31 07:47:29;;;;;;;4.17;1.30;;;12.40;39.00;;;;;;5040247;28;20477;-67
2022/12/31 07:49:57;;;;;;;4.17;0.80;;;12.40;38.90;;;;;;5036519;28;20463;-68
2022/12/31 07:52:24;;;;;;;3.60;0.70;;;12.50;38.80;;;;;;5042962;28;20466;-68
2022/12/31 07:54:51;;;;;;;3.80;1.30;;;12.50;38.60;;;;;;5040266;28;20462;-68
2022/12/31 07:57:20;;;;;;;3.70;0.90;;;12.60;38.40;;;;;;5036542;28;20489;-68
2022/12/31 08:00:01;;;;;;;3.80;0.93;;;12.60;38.20;;;;;;5033738;28;20470;-68
2022/12/31 08:02:55;;;;;;;3.57;0.80;;;12.60;38.10;;;;;;5040724;28;20617;-68
2022/12/31 08:05:29;;;;;;;3.77;0.83;;;12.70;37.90;;;;;;5042674;28;20458;-68
2022/12/31 08:08:05;;;;;;;3.87;0.80;;;12.80;37.60;;;;;;5039733;28;20485;-68
2022/12/31 08:10:43;;;;;;;4.00;0.90;;;13.00;37.40;;;;;;5041811;28;20450;-67
2022/12/31 08:13:12;;;;;;;3.70;0.83;;;13.00;37.30;;;;;;5039624;28;20449;-68
2022/12/31 08:15:40;;;;;;;4.40;0.90;;;13.00;36.90;;;;;;5034034;28;20467;-67
2022/12/31 08:18:07;;;;;;;3.53;0.87;;;13.10;36.70;;;;;;5039782;28;20605;-68
2022/12/31 08:20:38;;;;;;;3.63;0.83;;;13.10;36.40;;;;;;5037549;28;20470;-68
2022/12/31 08:23:18;;;;;;;3.70;0.80;;;13.20;36.30;;;;;;5036031;28;20481;-68
2022/12/31 08:26:10;;;;;;;3.90;1.00;;;13.20;36.00;;;;;;5038527;28;20621;-68
2022/12/31 08:28:54;;;;;;;4.50;1.00;;;13.20;36.20;;;;;;5030826;28;20482;-68
2022/12/31 08:31:27;;;;;;;3.50;0.80;;;13.30;35.70;;;;;;5037187;28;20486;-68
2022/12/31 08:34:03;;;;;;;3.90;1.20;;;13.40;35.70;;;;;;5032361;28;20459;-69
2022/12/31 08:36:38;;;;;;;4.63;1.00;;;13.50;35.30;;;;;;5031504;28;20557;-72
2022/12/31 08:39:13;;;;;;;4.60;1.37;;;13.60;35.10;;;;;;5039375;28;20477;-72
2022/12/31 08:41:43;;;;;;;3.80;0.80;;;13.60;34.50;;;;;;5040264;28;20463;-72
2022/12/31 08:44:19;;;;;;;4.13;1.07;;;13.60;34.40;;;;;;5034244;28;20483;-71
2022/12/31 08:46:54;;;;;;;4.40;1.33;;;13.60;34.30;;;;;;5042603;28;20461;-71
2022/12/31 08:49:21;;;;;;;3.40;0.70;;;13.60;33.90;;;;;;5042054;28;20569;-71
2022/12/31 08:51:48;;;;;;;4.30;0.83;;;13.70;34.60;;;;;;5036106;28;21242;-72
2022/12/31 08:54:15;;;;;;;3.73;1.00;;;14.00;34.70;;;;;;5041395;28;20466;-71
2022/12/31 08:59:33;;;;;;;3.90;1.10;;;15.30;31.30;;;;;;5039882;28;20639;-59
2022/12/31 09:02:37;;;;;;;3.40;0.80;;;15.90;29.50;;;;;;5039244;28;20480;-60
2022/12/31 09:05:14;;;;;;;5.60;1.17;;;16.30;26.40;;;;;;5030855;28;20477;-61
2022/12/31 09:07:49;;;;;;;3.87;0.90;;;16.40;26.80;;;;;;5038937;28;20576;-61
2022/12/31 09:10:24;;;;;;;3.90;1.10;;;16.70;25.70;;;;;;5040922;28;20464;-61
2022/12/31 09:13:03;;;;;;;3.40;0.83;;;17.10;25.00;;;;;;5039106;28;20473;-60
2022/12/31 09:15:37;;;;;;;4.43;0.73;;;17.50;23.70;;;;;;5042834;28;20457;-60
2022/12/31 09:18:04;;;;;;;4.20;1.00;;;17.90;21.60;;;;;;5043361;28;20849;-60
2022/12/31 09:20:33;;;;;;;3.90;1.10;;;18.30;20.70;;;;;;5043808;28;20464;-60
2022/12/31 09:23:01;;;;;;;3.60;0.73;;;18.60;20.10;;;;;;5040092;28;20474;-60
2022/12/31 09:25:29;;;;;;;3.60;0.83;;;18.90;18.60;;;;;;5037370;28;20812;-60
2022/12/31 09:28:13;;;;;;;3.60;0.80;;;19.30;18.00;;;;;;5033709;28;20481;-60
2022/12/31 09:30:50;;;;;;;4.37;0.67;;;19.50;16.30;;;;;;5039929;28;21200;-60
2022/12/31 09:33:30;;;;;;;3.87;0.77;;;19.60;16.60;;;;;;5041871;28;20462;-61
2022/12/31 09:36:00;;;;;;;4.17;0.83;;;19.50;16.00;;;;;;5039430;28;20454;-60
2022/12/31 09:38:32;;;;;;;4.43;0.97;;;19.30;16.10;;;;;;5044578;28;20479;-60
2022/12/31 09:41:13;;;;;;;3.50;0.90;;;19.00;16.80;;;;;;5039127;28;20466;-62
2022/12/31 09:44:31;;;;;;;4.60;0.73;;;18.80;16.90;;;;;;5034451;28;20564;-61
2022/12/31 09:47:35;;;;;;;4.00;1.17;;;18.50;17.70;;;;;;5041293;28;20466;-63
2022/12/31 09:50:20;;;;;;;3.73;0.90;;;18.20;18.30;;;;;;5045248;28;20466;-62
2022/12/31 09:53:18;;;;;;;3.60;0.87;;;18.00;18.80;;;;;;5041748;28;20469;-63
2022/12/31 09:55:49;;;;;;;4.20;0.87;;;17.80;19.40;;;;;;5037105;28;20525;-63
2022/12/31 09:58:28;;;;;;;3.97;1.33;;;17.70;19.70;;;;;;5041530;28;20489;-62
2022/12/31 10:01:01;;;;;;;5.17;1.13;;;17.50;20.00;;;;;;5040125;28;20478;-62
2022/12/31 10:03:58;;;;;;;3.67;0.97;;;17.40;20.20;;;;;;5039045;28;20490;-64
2022/12/31 10:06:28;;;;;;;4.27;1.10;;;17.30;20.80;;;;;;5036111;28;20466;-61
2022/12/31 10:09:16;;;;;;;3.57;0.87;;;17.30;21.40;;;;;;5033968;28;20490;-61
2022/12/31 10:12:00;;;;;;;3.80;1.00;;;17.60;21.20;;;;;;5031461;28;20465;-62
2022/12/31 10:14:41;;;;;;;3.77;0.90;;;18.00;20.70;;;;;;5034102;28;20470;-67
2022/12/31 10:17:27;;;;;;;3.40;0.90;;;18.40;19.80;;;;;;5025698;28;20509;-62
2022/12/31 10:20:19;;;;;;;3.93;1.20;;;18.60;19.00;;;;;;5040109;28;20463;-62
2022/12/31 10:23:03;;;;;;;4.60;0.90;;;18.60;18.70;;;;;;5035450;28;20447;-61
2022/12/31 10:25:43;;;;;;;3.60;0.80;;;18.80;18.70;;;;;;5029585;28;20447;-62
2022/12/31 10:28:22;;;;;;;4.60;0.80;;;19.10;18.20;;;;;;5040137;28;20478;-62
2022/12/31 10:30:57;;;;;;;4.37;1.03;;;19.40;17.60;;;;;;5040696;28;20461;-63
2022/12/31 10:33:37;;;;;;;3.60;1.00;;;19.70;16.70;;;;;;5039060;28;20453;-63
2022/12/31 10:36:11;;;;;;;3.60;0.87;;;20.00;16.10;;;;;;5033876;28;20468;-62
2022/12/31 10:38:51;;;;;;;3.90;1.00;;;20.40;15.10;;;;;;5040771;28;20480;-63
2022/12/31 10:42:04;;;;;;;3.50;0.77;;;20.70;14.50;;;;;;5038919;28;20454;-62
2022/12/31 10:45:04;;;;;;;3.50;0.87;;;21.00;13.70;;;;;;5035769;28;20479;-62
2022/12/31 10:48:05;;;;;;;3.50;0.70;;;21.20;12.80;;;;;;5039171;28;20481;-61
2022/12/31 10:51:04;;;;;;;3.53;0.80;;;21.60;12.40;;;;;;5041680;28;20489;-63
2022/12/31 10:53:58;;;;;;;3.40;0.90;;;22.20;11.70;;;;;;5037064;28;20843;-62
2022/12/31 10:57:15;;;;;;;4.13;1.20;;;22.70;10.30;;;;;;5037747;28;20465;-64
2022/12/31 11:00:03;;;;;;;3.50;0.93;;;23.20;9.30;;;;;;4970960;28;20469;-62
2022/12/31 11:03:07;;;;;;;3.53;0.93;;;23.70;8.40;;;;;;5030516;28;20573;-62
2022/12/31 11:06:19;;;;;;;3.57;0.83;;;24.40;7.70;;;;;;5035780;28;20507;-61
2022/12/31 11:09:17;;;;;;;3.60;0.93;;;25.10;6.10;;;;;;5040494;28;20499;-62
2022/12/31 11:11:50;;;;;;;3.77;0.80;;;25.90;5.00;;;;;;5044382;28;20489;-62
2022/12/31 11:14:50;;;;;;;3.33;0.80;;;26.60;4.10;;;;;;5037533;28;20449;-62
2022/12/31 11:17:28;;;;;;;4.27;0.67;;;27.20;3.40;;;;;;5033688;28;20485;-62
2022/12/31 11:20:22;;;;;;;3.30;0.90;;;27.60;2.90;;;;;;5042275;28;20466;-62
2022/12/31 11:22:58;;;;;;;3.83;0.77;;;27.90;2.10;;;;;;5039029;28;20545;-63
2022/12/31 11:25:39;;;;;;;3.50;1.03;;;28.10;1.70;;;;;;5039572;28;20507;-63
2022/12/31 11:28:25;;;;;;;3.87;0.93;;;28.20;1.70;;;;;;5041512;28;20495;-62
2022/12/31 11:31:11;;;;;;;5.13;1.20;;;28.40;1.10;;;;;;5041257;28;20470;-64
2022/12/31 11:33:51;;;;;;;3.90;1.10;;;28.60;1.10;;;;;;5031664;28;20482;-62
2022/12/31 11:36:28;;;;;;;4.20;1.10;;;28.70;1.00;;;;;;5039336;28;20472;-64
2022/12/31 11:39:23;;;;;;;5.03;1.40;;;28.70;1.00;;;;;;5042764;28;20496;-63
2022/12/31 11:41:54;;;;;;;4.50;1.10;;;28.70;1.00;;;;;;5039992;28;20481;-63
2022/12/31 11:44:35;;;;;;;3.80;1.03;;;28.80;1.00;;;;;;5043823;28;20564;-62
2022/12/31 11:47:15;;;;;;;3.77;1.10;;;28.70;1.00;;;;;;5043859;28;20461;-62
2022/12/31 11:49:55;;;;;;;3.83;1.27;;;28.50;1.10;;;;;;5042176;28;20458;-63
2022/12/31 11:52:49;;;;;;;3.63;1.20;;;28.40;1.30;;;;;;5041738;28;20821;-62
2022/12/31 11:55:29;;;;;;;4.07;1.20;;;28.20;1.40;;;;;;5036875;28;20461;-63
2022/12/31 11:58:01;;;;;;;5.87;1.43;;;28.00;1.70;;;;;;5044003;28;20894;-62
2022/12/31 12:00:31;;;;;;;4.00;1.20;;;27.70;1.80;;;;;;5041647;28;21068;-62
2022/12/31 12:03:02;;;;;;;4.00;1.10;;;27.60;2.20;;;;;;5040177;28;20463;-63
2022/12/31 12:05:29;;;;;;;4.37;1.20;;;27.40;3.00;;;;;;5043191;28;20482;-63
2022/12/31 12:07:56;;;;;;;4.10;1.20;;;27.30;2.70;;;;;;5041482;28;20473;-62
2022/12/31 12:10:25;;;;;;;4.43;1.00;;;27.10;2.90;;;;;;5043358;28;20972;-63
2022/12/31 12:12:54;;;;;;;4.90;1.33;;;26.80;3.10;;;;;;5039513;28;20872;-62
2022/12/31 12:15:25;;;;;;;4.90;1.37;;;26.40;3.60;;;;;;5040750;28;20961;-61
2022/12/31 12:17:57;;;;;;;5.67;1.37;;;26.00;4.20;;;;;;5041619;28;20473;-62
2022/12/31 12:20:30;;;;;;;3.97;1.13;;;25.60;4.70;;;;;;5046531;28;20457;-62
2022/12/31 12:22:58;;;;;;;3.90;1.30;;;25.40;5.50;;;;;;5041877;28;20986;-63
2022/12/31 12:25:27;;;;;;;5.60;1.60;;;25.30;6.00;;;;;;5041230;28;20482;-62
2022/12/31 12:27:54;;;;;;;15.93;10.40;;;25.10;6.30;;;;;;5042803;28;20505;-64
2022/12/31 12:30:26;;;;;;;11.57;7.57;;;24.90;6.80;;;;;;5030227;28;21028;-62
2022/12/31 12:32:55;;;;;;;3.70;1.20;;;24.70;7.20;;;;;;5037336;28;20470;-62
2022/12/31 12:35:29;;;;;;;3.90;1.20;;;24.50;7.70;;;;;;5032913;28;20470;-62
2022/12/31 12:38:01;;;;;;;3.60;0.90;;;24.30;8.00;;;;;;5039105;28;20859;-63
2022/12/31 12:40:28;;;;;;;3.57;1.00;;;24.00;8.10;;;;;;5041544;28;20462;-65
2022/12/31 12:42:55;;;;;;;3.37;0.77;;;23.70;8.70;;;;;;5031328;28;20470;-63
2022/12/31 12:45:25;;;;;;;6.77;1.03;;;23.30;9.10;;;;;;5033079;28;20473;-64
2022/12/31 12:47:57;;;;;;;3.97;1.00;;;23.00;9.60;;;;;;5032504;28;20497;-64
2022/12/31 12:50:26;;;;;;;3.50;0.87;;;22.80;10.10;;;;;;5035363;28;20461;-62
2022/12/31 12:53:27;;;;;;;5.13;1.23;;;22.60;10.40;;;;;;5036538;28;20951;-62
2022/12/31 12:56:03;;;;;;;5.30;0.80;;;22.30;11.20;;;;;;5020701;28;20732;-63
2022/12/31 12:58:41;;;;;;;3.80;0.80;;;22.10;11.60;;;;;;5036054;28;20997;-62
2022/12/31 13:01:20;;;;;;;4.00;0.93;;;21.80;12.10;;;;;;5036287;28;20508;-62
2022/12/31 13:04:20;;;;;;;3.80;1.30;;;21.70;12.90;;;;;;5037915;28;20461;-62
2022/12/31 13:06:59;;;;;;;3.70;1.07;;;21.50;13.30;;;;;;5037031;28;20466;-64
2022/12/31 13:09:40;;;;;;;3.90;1.10;;;21.30;13.80;;;;;;5039496;28;20465;-64
2022/12/31 13:12:16;;;;;;;4.50;0.90;;;21.20;14.70;;;;;;5040228;28;20553;-65
2022/12/31 13:14:53;;;;;;;4.40;1.23;;;21.00;14.60;;;;;;5035348;28;20493;-62
2022/12/31 13:17:46;;;;;;;3.50;0.90;;;20.90;14.90;;;;;;5040033;28;20488;-64
2022/12/31 13:20:20;;;;;;;3.43;0.70;;;20.70;15.40;;;;;;5027424;28;20462;-66
2022/12/31 13:22:54;;;;;;;3.50;0.80;;;20.60;15.70;;;;;;5031207;28;20481;-65
2022/12/31 13:25:28;;;;;;;3.73;0.80;;;20.40;16.00;;;;;;5029727;28;20895;-62
2022/12/31 13:27:59;;;;;;;3.60;0.90;;;20.20;16.40;;;;;;5028015;28;20492;-66
2022/12/31 13:30:31;;;;;;;3.40;0.80;;;20.10;16.70;;;;;;5033409;28;21007;-65
2022/12/31 13:33:03;;;;;;;4.23;1.27;;;19.90;17.00;;;;;;5038864;28;20476;-62
2022/12/31 13:35:37;;;;;;;4.17;1.07;;;19.80;17.40;;;;;;5032955;28;20462;-63
2022/12/31 13:38:12;;;;;;;3.37;0.90;;;19.70;17.60;;;;;;5030501;28;20481;-62
2022/12/31 13:40:46;;;;;;;3.50;0.90;;;19.60;17.60;;;;;;5035879;28;20509;-63